sensor_id;sensor_type;location;lat;lon;timestamp;temperature;humidity
23591;DHT22;11973;52.098;7.582;2022-10-16T00:00:42;12.60;99.90
23591;DHT22;11973;52.098;7.582;2022-10-16T00:03:09;12.50;99.90
23591;DHT22;11973;52.098;7.582;2022-10-16T00:05:40;12.50;99.90
23591;DHT22;11973;52.098;7.582;2022-10-16T00:08:07;12.60;99.90
23591;DHT22;11973;52.098;7.582;2022-10-16T00:10:34;12.50;99.90
23591;DHT22;11973;52.098;7.582;2022-10-16T00:13:00;12.50;99.90
23591;DHT22;11973;52.098;7.582;2022-10-16T00:15:25;12.50;99.90
23591;DHT22;11973;52.098;7.582;2022-10-16T00:17:51;12.50;99.90
23591;DHT22;11973;52.098;7.582;2022-10-16T00:20:17;12.50;99.90
23591;DHT22;11973;52.098;7.582;2022-10-16T00:22:42;12.60;99.90
23591;DHT22;11973;52.098;7.582;2022-10-16T00:25:08;12.50;99.90
23591;DHT22;11973;52.098;7.582;2022-10-16T00:27:34;12.50;99.90
23591;DHT22;11973;52.098;7.582;2022-10-16T00:30:00;12.50;99.90
23591;DHT22;11973;52.098;7.582;2022-10-16T00:32:26;12.50;99.90
23591;DHT22;11973;52.098;7.582;2022-10-16T00:34:51;12.40;99.90
23591;DHT22;11973;52.098;7.582;2022-10-16T00:37:20;12.40;99.90
23591;DHT22;11973;52.098;7.582;2022-10-16T00:39:46;12.40;99.90
23591;DHT22;11973;52.098;7.582;2022-10-16T00:42:16;12.40;99.90
23591;DHT22;11973;52.098;7.582;2022-10-16T00:44:49;12.40;99.90
23591;DHT22;11973;52.098;7.582;2022-10-16T00:47:30;12.50;99.90
23591;DHT22;11973;52.098;7.582;2022-10-16T00:50:30;12.50;99.90
23591;DHT22;11973;52.098;7.582;2022-10-16T00:52:58;12.50;99.90
23591;DHT22;11973;52.098;7.582;2022-10-16T00:55:26;12.50;99.90
23591;DHT22;11973;52.098;7.582;2022-10-16T00:57:53;12.50;99.90
23591;DHT22;11973;52.098;7.582;2022-10-16T01:00:25;12.50;99.90
23591;DHT22;11973;52.098;7.582;2022-10-16T01:02:56;12.50;99.90
23591;DHT22;11973;52.098;7.582;2022-10-16T01:05:24;12.50;99.90
23591;DHT22;11973;52.098;7.582;2022-10-16T01:08:13;12.40;99.90
23591;DHT22;11973;52.098;7.582;2022-10-16T01:10:49;12.50;99.90
23591;DHT22;11973;52.098;7.582;2022-10-16T01:13:27;12.50;99.90
23591;DHT22;11973;52.098;7.582;2022-10-16T01:18:39;12.40;99.90
23591;DHT22;11973;52.098;7.582;2022-10-16T01:21:19;12.40;99.90
23591;DHT22;11973;52.098;7.582;2022-10-16T01:24:02;12.50;99.90
23591;DHT22;11973;52.098;7.582;2022-10-16T01:26:38;12.40;99.90
23591;DHT22;11973;52.098;7.582;2022-10-16T01:29:11;12.50;99.90
23591;DHT22;11973;52.098;7.582;2022-10-16T01:31:45;12.40;99.90
23591;DHT22;11973;52.098;7.582;2022-10-16T01:34:16;12.40;99.90
23591;DHT22;11973;52.098;7.582;2022-10-16T01:36:54;12.40;99.90
23591;DHT22;11973;52.098;7.582;2022-10-16T01:39:24;12.40;99.90
23591;DHT22;11973;52.098;7.582;2022-10-16T01:42:16;12.40;99.90
23591;DHT22;11973;52.098;7.582;2022-10-16T01:44:44;12.40;99.90
23591;DHT22;11973;52.098;7.582;2022-10-16T01:47:13;12.40;99.90
23591;DHT22;11973;52.098;7.582;2022-10-16T01:49:41;12.40;99.90
23591;DHT22;11973;52.098;7.582;2022-10-16T01:52:13;12.30;99.90
23591;DHT22;11973;52.098;7.582;2022-10-16T01:54:42;12.30;99.90
23591;DHT22;11973;52.098;7.582;2022-10-16T01:57:10;12.40;99.90
23591;DHT22;11973;52.098;7.582;2022-10-16T01:59:44;12.30;99.90
23591;DHT22;11973;52.098;7.582;2022-10-16T02:02:10;12.30;99.90
23591;DHT22;11973;52.098;7.582;2022-10-16T02:04:58;12.30;99.90
23591;DHT22;11973;52.098;7.582;2022-10-16T02:07:25;12.30;99.90
23591;DHT22;11973;52.098;7.582;2022-10-16T02:09:50;12.30;99.90
23591;DHT22;11973;52.098;7.582;2022-10-16T02:12:26;12.30;99.90
23591;DHT22;11973;52.098;7.582;2022-10-16T02:14:53;12.30;99.90
23591;DHT22;11973;52.098;7.582;2022-10-16T02:17:20;12.30;99.90
23591;DHT22;11973;52.098;7.582;2022-10-16T02:19:48;12.30;99.90
23591;DHT22;11973;52.098;7.582;2022-10-16T02:22:19;12.30;99.90
23591;DHT22;11973;52.098;7.582;2022-10-16T02:24:53;12.30;99.90
23591;DHT22;11973;52.098;7.582;2022-10-16T02:30:19;12.20;99.90
23591;DHT22;11973;52.098;7.582;2022-10-16T02:32:45;12.30;99.90
23591;DHT22;11973;52.098;7.582;2022-10-16T02:35:12;12.20;99.90
23591;DHT22;11973;52.098;7.582;2022-10-16T02:37:38;12.20;99.90
23591;DHT22;11973;52.098;7.582;2022-10-16T02:40:06;12.40;99.90
23591;DHT22;11973;52.098;7.582;2022-10-16T02:42:39;12.20;99.90
23591;DHT22;11973;52.098;7.582;2022-10-16T02:45:06;12.30;99.90
23591;DHT22;11973;52.098;7.582;2022-10-16T02:47:32;12.20;99.90
23591;DHT22;11973;52.098;7.582;2022-10-16T02:49:58;12.20;99.90
23591;DHT22;11973;52.098;7.582;2022-10-16T02:52:24;12.20;99.90
23591;DHT22;11973;52.098;7.582;2022-10-16T02:54:49;12.30;99.90
23591;DHT22;11973;52.098;7.582;2022-10-16T02:57:15;12.30;99.90
23591;DHT22;11973;52.098;7.582;2022-10-16T02:59:41;12.30;99.90
23591;DHT22;11973;52.098;7.582;2022-10-16T03:02:07;12.30;99.90
23591;DHT22;11973;52.098;7.582;2022-10-16T03:04:33;12.40;99.90
23591;DHT22;11973;52.098;7.582;2022-10-16T03:06:58;12.30;99.90
23591;DHT22;11973;52.098;7.582;2022-10-16T03:09:24;12.30;99.90
23591;DHT22;11973;52.098;7.582;2022-10-16T03:11:50;12.50;99.90
23591;DHT22;11973;52.098;7.582;2022-10-16T03:14:15;12.30;99.90
23591;DHT22;11973;52.098;7.582;2022-10-16T03:16:42;12.40;99.90
23591;DHT22;11973;52.098;7.582;2022-10-16T03:19:08;12.40;99.90
23591;DHT22;11973;52.098;7.582;2022-10-16T03:21:33;12.50;99.90
23591;DHT22;11973;52.098;7.582;2022-10-16T03:23:59;12.50;99.90
23591;DHT22;11973;52.098;7.582;2022-10-16T03:26:25;12.40;99.90
23591;DHT22;11973;52.098;7.582;2022-10-16T03:28:50;12.40;99.90
23591;DHT22;11973;52.098;7.582;2022-10-16T03:31:16;12.50;99.90
23591;DHT22;11973;52.098;7.582;2022-10-16T03:33:42;12.40;99.90
23591;DHT22;11973;52.098;7.582;2022-10-16T03:36:07;12.50;99.90
23591;DHT22;11973;52.098;7.582;2022-10-16T03:38:33;12.50;99.90
23591;DHT22;11973;52.098;7.582;2022-10-16T03:40:59;12.50;99.90
23591;DHT22;11973;52.098;7.582;2022-10-16T03:43:24;12.50;99.90
23591;DHT22;11973;52.098;7.582;2022-10-16T03:45:51;12.50;99.90
23591;DHT22;11973;52.098;7.582;2022-10-16T03:48:17;12.50;99.90
23591;DHT22;11973;52.098;7.582;2022-10-16T03:50:43;12.60;99.90
23591;DHT22;11973;52.098;7.582;2022-10-16T03:53:09;12.40;99.90
23591;DHT22;11973;52.098;7.582;2022-10-16T03:55:35;12.40;99.90
23591;DHT22;11973;52.098;7.582;2022-10-16T03:58:01;12.40;99.90
23591;DHT22;11973;52.098;7.582;2022-10-16T04:00:27;12.40;99.90
23591;DHT22;11973;52.098;7.582;2022-10-16T04:02:52;12.40;99.90
23591;DHT22;11973;52.098;7.582;2022-10-16T04:05:18;12.40;99.90
23591;DHT22;11973;52.098;7.582;2022-10-16T04:07:44;12.40;99.90
23591;DHT22;11973;52.098;7.582;2022-10-16T04:10:09;12.50;99.90
23591;DHT22;11973;52.098;7.582;2022-10-16T04:12:35;12.40;99.90
23591;DHT22;11973;52.098;7.582;2022-10-16T04:15:01;12.40;99.90
23591;DHT22;11973;52.098;7.582;2022-10-16T05:16:44;12.40;99.90
23591;DHT22;11973;52.098;7.582;2022-10-16T05:19:10;12.40;99.90
23591;DHT22;11973;52.098;7.582;2022-10-16T05:21:35;12.40;99.90
23591;DHT22;11973;52.098;7.582;2022-10-16T05:24:01;12.40;99.90
23591;DHT22;11973;52.098;7.582;2022-10-16T05:26:27;12.30;99.90
23591;DHT22;11973;52.098;7.582;2022-10-16T05:28:53;12.30;99.90
23591;DHT22;11973;52.098;7.582;2022-10-16T05:31:18;12.30;99.90
23591;DHT22;11973;52.098;7.582;2022-10-16T05:33:44;12.30;99.90
23591;DHT22;11973;52.098;7.582;2022-10-16T05:36:10;12.30;99.90
23591;DHT22;11973;52.098;7.582;2022-10-16T05:38:37;12.40;99.90
23591;DHT22;11973;52.098;7.582;2022-10-16T05:41:04;12.30;99.90
23591;DHT22;11973;52.098;7.582;2022-10-16T05:43:30;12.30;99.90
23591;DHT22;11973;52.098;7.582;2022-10-16T05:46:00;12.30;99.90
23591;DHT22;11973;52.098;7.582;2022-10-16T05:48:26;12.30;99.90
23591;DHT22;11973;52.098;7.582;2022-10-16T05:51:04;12.20;99.90
23591;DHT22;11973;52.098;7.582;2022-10-16T05:53:32;12.20;99.90
23591;DHT22;11973;52.098;7.582;2022-10-16T05:55:58;12.20;99.90
23591;DHT22;11973;52.098;7.582;2022-10-16T05:58:25;12.20;99.90
23591;DHT22;11973;52.098;7.582;2022-10-16T06:01:04;12.20;99.90
23591;DHT22;11973;52.098;7.582;2022-10-16T06:03:30;12.20;99.90
23591;DHT22;11973;52.098;7.582;2022-10-16T06:05:56;12.10;99.90
23591;DHT22;11973;52.098;7.582;2022-10-16T06:08:22;12.10;99.90
23591;DHT22;11973;52.098;7.582;2022-10-16T06:10:49;12.10;99.90
23591;DHT22;11973;52.098;7.582;2022-10-16T06:13:15;12.10;99.90
23591;DHT22;11973;52.098;7.582;2022-10-16T06:15:42;12.10;99.90
23591;DHT22;11973;52.098;7.582;2022-10-16T06:18:09;12.10;99.90
23591;DHT22;11973;52.098;7.582;2022-10-16T06:20:35;12.10;99.90
23591;DHT22;11973;52.098;7.582;2022-10-16T06:23:01;12.10;99.90
23591;DHT22;11973;52.098;7.582;2022-10-16T06:25:27;12.10;99.90
23591;DHT22;11973;52.098;7.582;2022-10-16T06:27:53;12.10;99.90
23591;DHT22;11973;52.098;7.582;2022-10-16T06:30:18;12.10;99.90
23591;DHT22;11973;52.098;7.582;2022-10-16T06:32:44;12.10;99.90
23591;DHT22;11973;52.098;7.582;2022-10-16T06:35:10;12.20;99.90
23591;DHT22;11973;52.098;7.582;2022-10-16T06:37:35;12.10;99.90
23591;DHT22;11973;52.098;7.582;2022-10-16T06:40:01;12.10;99.90
23591;DHT22;11973;52.098;7.582;2022-10-16T06:42:29;12.10;99.90
23591;DHT22;11973;52.098;7.582;2022-10-16T06:44:56;12.10;99.90
23591;DHT22;11973;52.098;7.582;2022-10-16T06:47:21;12.10;99.90
23591;DHT22;11973;52.098;7.582;2022-10-16T06:49:47;12.10;99.90
23591;DHT22;11973;52.098;7.582;2022-10-16T06:52:13;12.10;99.90
23591;DHT22;11973;52.098;7.582;2022-10-16T06:54:38;12.10;99.90
23591;DHT22;11973;52.098;7.582;2022-10-16T06:57:04;12.10;99.90
23591;DHT22;11973;52.098;7.582;2022-10-16T06:59:29;12.10;99.90
23591;DHT22;11973;52.098;7.582;2022-10-16T07:01:55;12.10;99.90
23591;DHT22;11973;52.098;7.582;2022-10-16T07:04:21;12.10;99.90
23591;DHT22;11973;52.098;7.582;2022-10-16T07:06:46;12.10;99.90
23591;DHT22;11973;52.098;7.582;2022-10-16T07:09:12;12.20;99.90
23591;DHT22;11973;52.098;7.582;2022-10-16T07:11:39;12.30;99.90
23591;DHT22;11973;52.098;7.582;2022-10-16T07:14:16;12.30;99.90
23591;DHT22;11973;52.098;7.582;2022-10-16T07:16:42;12.20;99.90
23591;DHT22;11973;52.098;7.582;2022-10-16T07:19:08;12.30;99.90
23591;DHT22;11973;52.098;7.582;2022-10-16T07:21:34;12.20;99.90
23591;DHT22;11973;52.098;7.582;2022-10-16T07:24:05;12.20;99.90
23591;DHT22;11973;52.098;7.582;2022-10-16T07:26:34;12.20;99.90
23591;DHT22;11973;52.098;7.582;2022-10-16T07:29:00;12.20;99.90
23591;DHT22;11973;52.098;7.582;2022-10-16T07:31:26;12.20;99.90
23591;DHT22;11973;52.098;7.582;2022-10-16T07:33:53;12.30;99.90
23591;DHT22;11973;52.098;7.582;2022-10-16T07:36:19;12.30;99.90
23591;DHT22;11973;52.098;7.582;2022-10-16T07:38:45;12.30;99.90
23591;DHT22;11973;52.098;7.582;2022-10-16T07:41:14;12.50;99.90
23591;DHT22;11973;52.098;7.582;2022-10-16T07:43:40;12.40;99.90
23591;DHT22;11973;52.098;7.582;2022-10-16T07:46:10;12.50;99.90
23591;DHT22;11973;52.098;7.582;2022-10-16T07:48:36;12.50;99.90
23591;DHT22;11973;52.098;7.582;2022-10-16T07:51:04;12.60;99.90
23591;DHT22;11973;52.098;7.582;2022-10-16T07:53:31;12.60;99.90
23591;DHT22;11973;52.098;7.582;2022-10-16T07:56:02;12.70;99.90
23591;DHT22;11973;52.098;7.582;2022-10-16T07:58:28;12.70;99.90
23591;DHT22;11973;52.098;7.582;2022-10-16T08:00:55;12.80;99.90
23591;DHT22;11973;52.098;7.582;2022-10-16T08:03:21;12.90;99.90
23591;DHT22;11973;52.098;7.582;2022-10-16T08:05:46;12.90;99.90
23591;DHT22;11973;52.098;7.582;2022-10-16T08:08:14;13.10;99.90
23591;DHT22;11973;52.098;7.582;2022-10-16T08:10:40;13.20;99.90
23591;DHT22;11973;52.098;7.582;2022-10-16T08:13:06;13.10;99.90
23591;DHT22;11973;52.098;7.582;2022-10-16T08:15:32;13.20;99.90
23591;DHT22;11973;52.098;7.582;2022-10-16T08:17:59;13.30;99.90
23591;DHT22;11973;52.098;7.582;2022-10-16T08:20:26;13.30;99.90
23591;DHT22;11973;52.098;7.582;2022-10-16T08:22:52;13.40;99.90
23591;DHT22;11973;52.098;7.582;2022-10-16T08:25:18;13.50;99.90
23591;DHT22;11973;52.098;7.582;2022-10-16T08:27:44;13.50;99.90
23591;DHT22;11973;52.098;7.582;2022-10-16T08:30:10;13.60;99.90
23591;DHT22;11973;52.098;7.582;2022-10-16T08:32:36;13.70;99.90
23591;DHT22;11973;52.098;7.582;2022-10-16T08:35:01;13.70;99.90
23591;DHT22;11973;52.098;7.582;2022-10-16T08:37:31;13.80;99.90
23591;DHT22;11973;52.098;7.582;2022-10-16T08:39:57;13.90;99.90
23591;DHT22;11973;52.098;7.582;2022-10-16T08:48:30;14.10;99.90
23591;DHT22;11973;52.098;7.582;2022-10-16T08:51:02;14.10;99.90
23591;DHT22;11973;52.098;7.582;2022-10-16T08:53:55;14.20;99.90
23591;DHT22;11973;52.098;7.582;2022-10-16T08:56:22;14.20;99.90
23591;DHT22;11973;52.098;7.582;2022-10-16T08:58:49;14.20;99.90
23591;DHT22;11973;52.098;7.582;2022-10-16T09:01:17;14.30;99.90
23591;DHT22;11973;52.098;7.582;2022-10-16T09:06:59;14.40;99.90
23591;DHT22;11973;52.098;7.582;2022-10-16T09:12:32;14.50;99.90
23591;DHT22;11973;52.098;7.582;2022-10-16T09:25:31;14.70;99.90
23591;DHT22;11973;52.098;7.582;2022-10-16T09:27:58;14.80;99.90
23591;DHT22;11973;52.098;7.582;2022-10-16T09:30:27;14.90;99.90
23591;DHT22;11973;52.098;7.582;2022-10-16T09:32:55;14.90;99.90
23591;DHT22;11973;52.098;7.582;2022-10-16T09:35:27;15.00;99.90
23591;DHT22;11973;52.098;7.582;2022-10-16T09:37:56;15.10;99.90
23591;DHT22;11973;52.098;7.582;2022-10-16T09:40:31;15.30;99.90
23591;DHT22;11973;52.098;7.582;2022-10-16T09:45:38;15.50;99.90
23591;DHT22;11973;52.098;7.582;2022-10-16T09:48:11;15.60;99.90
23591;DHT22;11973;52.098;7.582;2022-10-16T09:50:38;15.80;99.90
23591;DHT22;11973;52.098;7.582;2022-10-16T09:53:13;15.90;99.90
23591;DHT22;11973;52.098;7.582;2022-10-16T13:35:27;17.60;99.90
23591;DHT22;11973;52.098;7.582;2022-10-16T13:38:08;17.60;99.90
23591;DHT22;11973;52.098;7.582;2022-10-16T13:40:36;17.70;99.90
23591;DHT22;11973;52.098;7.582;2022-10-16T13:43:02;17.90;99.90
23591;DHT22;11973;52.098;7.582;2022-10-16T13:45:28;18.00;99.90
23591;DHT22;11973;52.098;7.582;2022-10-16T13:48:15;18.30;99.90
23591;DHT22;11973;52.098;7.582;2022-10-16T13:50:41;18.50;99.90
23591;DHT22;11973;52.098;7.582;2022-10-16T13:53:13;18.60;99.90
23591;DHT22;11973;52.098;7.582;2022-10-16T13:55:39;18.80;99.90
23591;DHT22;11973;52.098;7.582;2022-10-16T13:58:13;18.90;99.90
23591;DHT22;11973;52.098;7.582;2022-10-16T14:00:42;19.00;99.90
23591;DHT22;11973;52.098;7.582;2022-10-16T14:03:20;19.20;99.90
23591;DHT22;11973;52.098;7.582;2022-10-16T14:05:49;19.30;99.90
23591;DHT22;11973;52.098;7.582;2022-10-16T14:08:15;19.30;99.90
23591;DHT22;11973;52.098;7.582;2022-10-16T14:10:41;19.30;99.90
23591;DHT22;11973;52.098;7.582;2022-10-16T14:13:12;19.40;99.90
23591;DHT22;11973;52.098;7.582;2022-10-16T14:15:38;19.30;99.90
23591;DHT22;11973;52.098;7.582;2022-10-16T14:18:05;19.30;99.90
23591;DHT22;11973;52.098;7.582;2022-10-16T14:20:33;19.30;99.90
23591;DHT22;11973;52.098;7.582;2022-10-16T14:23:30;19.40;99.90
23591;DHT22;11973;52.098;7.582;2022-10-16T14:26:26;19.40;99.90
23591;DHT22;11973;52.098;7.582;2022-10-16T14:29:24;19.70;99.90
23591;DHT22;11973;52.098;7.582;2022-10-16T14:32:02;20.10;99.90
23591;DHT22;11973;52.098;7.582;2022-10-16T14:34:31;20.50;99.90
23591;DHT22;11973;52.098;7.582;2022-10-16T14:37:01;20.90;99.90
23591;DHT22;11973;52.098;7.582;2022-10-16T14:39:32;21.20;99.90
23591;DHT22;11973;52.098;7.582;2022-10-16T14:42:00;21.60;99.90
23591;DHT22;11973;52.098;7.582;2022-10-16T14:44:56;22.00;99.90
23591;DHT22;11973;52.098;7.582;2022-10-16T14:48:05;22.30;99.90
23591;DHT22;11973;52.098;7.582;2022-10-16T14:51:04;22.80;99.90
23591;DHT22;11973;52.098;7.582;2022-10-16T14:53:30;23.10;99.90
23591;DHT22;11973;52.098;7.582;2022-10-16T14:55:56;23.40;99.90
23591;DHT22;11973;52.098;7.582;2022-10-16T14:58:23;23.50;99.90
23591;DHT22;11973;52.098;7.582;2022-10-16T15:00:49;23.70;99.90
23591;DHT22;11973;52.098;7.582;2022-10-16T15:03:15;23.60;99.90
23591;DHT22;11973;52.098;7.582;2022-10-16T15:05:41;23.50;99.90
23591;DHT22;11973;52.098;7.582;2022-10-16T15:08:06;23.20;99.90
23591;DHT22;11973;52.098;7.582;2022-10-16T15:10:38;23.10;99.90
23591;DHT22;11973;52.098;7.582;2022-10-16T15:13:04;22.80;99.90
23591;DHT22;11973;52.098;7.582;2022-10-16T15:15:35;22.50;99.90
23591;DHT22;11973;52.098;7.582;2022-10-16T15:18:02;22.10;99.90
23591;DHT22;11973;52.098;7.582;2022-10-16T15:20:29;21.80;99.90
23591;DHT22;11973;52.098;7.582;2022-10-16T15:22:56;21.40;99.90
23591;DHT22;11973;52.098;7.582;2022-10-16T15:27:54;20.80;99.90
23591;DHT22;11973;52.098;7.582;2022-10-16T15:30:21;20.50;99.90
23591;DHT22;11973;52.098;7.582;2022-10-16T15:32:46;20.30;99.90
23591;DHT22;11973;52.098;7.582;2022-10-16T15:35:12;20.00;99.90
23591;DHT22;11973;52.098;7.582;2022-10-16T15:37:38;19.80;99.90
23591;DHT22;11973;52.098;7.582;2022-10-16T15:40:04;19.60;99.90
23591;DHT22;11973;52.098;7.582;2022-10-16T15:42:30;19.40;99.90
23591;DHT22;11973;52.098;7.582;2022-10-16T15:44:55;19.20;99.90
23591;DHT22;11973;52.098;7.582;2022-10-16T15:47:21;19.00;99.90
23591;DHT22;11973;52.098;7.582;2022-10-16T15:49:47;18.80;99.90
23591;DHT22;11973;52.098;7.582;2022-10-16T15:52:12;18.70;99.90
23591;DHT22;11973;52.098;7.582;2022-10-16T15:54:38;18.50;99.90
23591;DHT22;11973;52.098;7.582;2022-10-16T15:57:04;18.40;99.90
23591;DHT22;11973;52.098;7.582;2022-10-16T15:59:29;18.20;99.90
23591;DHT22;11973;52.098;7.582;2022-10-16T16:01:55;18.10;99.90
23591;DHT22;11973;52.098;7.582;2022-10-16T16:04:21;18.00;99.90
23591;DHT22;11973;52.098;7.582;2022-10-16T16:06:47;17.90;99.90
23591;DHT22;11973;52.098;7.582;2022-10-16T16:09:14;17.80;99.90
23591;DHT22;11973;52.098;7.582;2022-10-16T16:11:40;17.70;99.90
23591;DHT22;11973;52.098;7.582;2022-10-16T16:14:06;17.60;99.90
23591;DHT22;11973;52.098;7.582;2022-10-16T16:16:32;17.50;99.90
23591;DHT22;11973;52.098;7.582;2022-10-16T16:19:06;17.40;99.90
23591;DHT22;11973;52.098;7.582;2022-10-16T16:21:33;17.30;99.90
23591;DHT22;11973;52.098;7.582;2022-10-16T16:23:59;17.30;99.90
23591;DHT22;11973;52.098;7.582;2022-10-16T16:26:27;17.10;99.90
23591;DHT22;11973;52.098;7.582;2022-10-16T16:28:54;17.00;99.90
23591;DHT22;11973;52.098;7.582;2022-10-16T16:31:26;16.90;99.90
23591;DHT22;11973;52.098;7.582;2022-10-16T16:33:52;16.90;99.90
23591;DHT22;11973;52.098;7.582;2022-10-16T16:36:18;16.80;99.90
23591;DHT22;11973;52.098;7.582;2022-10-16T16:38:45;16.70;99.90
23591;DHT22;11973;52.098;7.582;2022-10-16T16:41:15;16.70;99.90
23591;DHT22;11973;52.098;7.582;2022-10-16T16:43:41;16.60;99.90
23591;DHT22;11973;52.098;7.582;2022-10-16T16:46:07;16.60;99.90
23591;DHT22;11973;52.098;7.582;2022-10-16T16:48:34;16.50;99.90
23591;DHT22;11973;52.098;7.582;2022-10-16T16:51:08;16.50;99.90
23591;DHT22;11973;52.098;7.582;2022-10-16T16:53:35;16.40;99.90
23591;DHT22;11973;52.098;7.582;2022-10-16T16:56:02;16.40;99.90
23591;DHT22;11973;52.098;7.582;2022-10-16T16:58:31;16.40;99.90
23591;DHT22;11973;52.098;7.582;2022-10-16T17:00:57;16.30;99.90
23591;DHT22;11973;52.098;7.582;2022-10-16T17:03:31;16.30;99.90
23591;DHT22;11973;52.098;7.582;2022-10-16T17:06:02;16.20;99.90
23591;DHT22;11973;52.098;7.582;2022-10-16T17:08:29;16.20;99.90
23591;DHT22;11973;52.098;7.582;2022-10-16T17:10:56;16.20;99.90
23591;DHT22;11973;52.098;7.582;2022-10-16T17:13:30;16.20;99.90
23591;DHT22;11973;52.098;7.582;2022-10-16T17:15:56;16.10;99.90
23591;DHT22;11973;52.098;7.582;2022-10-16T17:18:23;16.10;99.90
23591;DHT22;11973;52.098;7.582;2022-10-16T17:20:50;16.00;99.90
23591;DHT22;11973;52.098;7.582;2022-10-16T17:23:17;16.00;99.90
23591;DHT22;11973;52.098;7.582;2022-10-16T17:25:44;15.90;99.90
23591;DHT22;11973;52.098;7.582;2022-10-16T17:28:10;15.90;99.90
23591;DHT22;11973;52.098;7.582;2022-10-16T17:30:38;15.90;99.90
23591;DHT22;11973;52.098;7.582;2022-10-16T17:33:04;15.90;99.90
23591;DHT22;11973;52.098;7.582;2022-10-16T17:35:40;15.80;99.90
23591;DHT22;11973;52.098;7.582;2022-10-16T17:38:06;15.80;99.90
23591;DHT22;11973;52.098;7.582;2022-10-16T17:40:32;15.80;99.90
23591;DHT22;11973;52.098;7.582;2022-10-16T17:42:58;15.70;99.90
23591;DHT22;11973;52.098;7.582;2022-10-16T17:45:24;15.70;99.90
23591;DHT22;11973;52.098;7.582;2022-10-16T17:47:50;15.70;99.90
23591;DHT22;11973;52.098;7.582;2022-10-16T17:50:16;15.60;99.90
23591;DHT22;11973;52.098;7.582;2022-10-16T17:52:42;15.60;99.90
23591;DHT22;11973;52.098;7.582;2022-10-16T17:55:08;15.60;99.90
23591;DHT22;11973;52.098;7.582;2022-10-16T17:57:33;15.60;99.90
23591;DHT22;11973;52.098;7.582;2022-10-16T17:59:59;15.50;99.90
23591;DHT22;11973;52.098;7.582;2022-10-16T18:02:30;15.50;99.90
23591;DHT22;11973;52.098;7.582;2022-10-16T18:04:56;15.50;99.90
23591;DHT22;11973;52.098;7.582;2022-10-16T18:07:22;15.50;99.90
23591;DHT22;11973;52.098;7.582;2022-10-16T18:09:48;15.50;99.90
23591;DHT22;11973;52.098;7.582;2022-10-16T18:12:14;15.40;99.90
23591;DHT22;11973;52.098;7.582;2022-10-16T18:14:40;15.40;99.90
23591;DHT22;11973;52.098;7.582;2022-10-16T18:17:06;15.40;99.90
23591;DHT22;11973;52.098;7.582;2022-10-16T18:19:32;15.40;99.90
23591;DHT22;11973;52.098;7.582;2022-10-16T18:21:58;15.30;99.90
23591;DHT22;11973;52.098;7.582;2022-10-16T18:24:24;15.30;99.90
23591;DHT22;11973;52.098;7.582;2022-10-16T18:26:54;15.30;99.90
23591;DHT22;11973;52.098;7.582;2022-10-16T18:29:25;15.30;99.90
23591;DHT22;11973;52.098;7.582;2022-10-16T18:31:51;15.20;99.90
23591;DHT22;11973;52.098;7.582;2022-10-16T18:34:17;15.20;99.90
23591;DHT22;11973;52.098;7.582;2022-10-16T18:36:43;15.20;99.90
23591;DHT22;11973;52.098;7.582;2022-10-16T18:39:10;15.20;99.90
23591;DHT22;11973;52.098;7.582;2022-10-16T18:41:38;15.10;99.90
23591;DHT22;11973;52.098;7.582;2022-10-16T18:44:05;15.10;99.90
23591;DHT22;11973;52.098;7.582;2022-10-16T18:46:31;15.10;99.90
23591;DHT22;11973;52.098;7.582;2022-10-16T18:48:57;15.10;99.90
23591;DHT22;11973;52.098;7.582;2022-10-16T18:51:29;15.10;99.90
23591;DHT22;11973;52.098;7.582;2022-10-16T18:54:04;15.00;99.90
23591;DHT22;11973;52.098;7.582;2022-10-16T18:56:35;15.00;99.90
23591;DHT22;11973;52.098;7.582;2022-10-16T18:59:03;15.00;99.90
23591;DHT22;11973;52.098;7.582;2022-10-16T19:01:31;15.00;99.90
23591;DHT22;11973;52.098;7.582;2022-10-16T19:04:01;15.00;99.90
23591;DHT22;11973;52.098;7.582;2022-10-16T19:06:28;14.90;99.90
23591;DHT22;11973;52.098;7.582;2022-10-16T19:08:55;14.90;99.90
23591;DHT22;11973;52.098;7.582;2022-10-16T19:11:23;14.90;99.90
23591;DHT22;11973;52.098;7.582;2022-10-16T19:13:50;14.90;99.90
23591;DHT22;11973;52.098;7.582;2022-10-16T19:16:22;14.90;99.90
23591;DHT22;11973;52.098;7.582;2022-10-16T19:18:49;14.90;99.90
23591;DHT22;11973;52.098;7.582;2022-10-16T19:21:16;14.90;99.90
23591;DHT22;11973;52.098;7.582;2022-10-16T19:23:42;14.90;99.90
23591;DHT22;11973;52.098;7.582;2022-10-16T19:26:13;14.80;99.90
23591;DHT22;11973;52.098;7.582;2022-10-16T19:28:40;14.90;99.90
23591;DHT22;11973;52.098;7.582;2022-10-16T19:31:09;14.90;99.90
23591;DHT22;11973;52.098;7.582;2022-10-16T19:33:36;14.90;99.90
23591;DHT22;11973;52.098;7.582;2022-10-16T19:38:31;14.90;99.90
23591;DHT22;11973;52.098;7.582;2022-10-16T19:41:07;14.90;99.90
23591;DHT22;11973;52.098;7.582;2022-10-16T19:43:33;14.90;99.90
23591;DHT22;11973;52.098;7.582;2022-10-16T19:46:03;15.00;99.90
23591;DHT22;11973;52.098;7.582;2022-10-16T19:48:29;14.90;99.90
23591;DHT22;11973;52.098;7.582;2022-10-16T19:50:57;14.90;99.90
23591;DHT22;11973;52.098;7.582;2022-10-16T19:53:23;14.90;99.90
23591;DHT22;11973;52.098;7.582;2022-10-16T19:55:50;14.90;99.90
23591;DHT22;11973;52.098;7.582;2022-10-16T19:58:16;14.90;99.90
23591;DHT22;11973;52.098;7.582;2022-10-16T20:00:48;14.90;99.90
23591;DHT22;11973;52.098;7.582;2022-10-16T20:03:15;14.90;99.90
23591;DHT22;11973;52.098;7.582;2022-10-16T20:05:52;14.90;99.90
23591;DHT22;11973;52.098;7.582;2022-10-16T20:08:18;14.90;99.90
23591;DHT22;11973;52.098;7.582;2022-10-16T20:10:52;14.90;99.90
23591;DHT22;11973;52.098;7.582;2022-10-16T20:13:19;15.00;99.90
23591;DHT22;11973;52.098;7.582;2022-10-16T20:15:45;14.90;99.90
23591;DHT22;11973;52.098;7.582;2022-10-16T20:18:13;15.00;99.90
23591;DHT22;11973;52.098;7.582;2022-10-16T20:20:42;15.00;99.90
23591;DHT22;11973;52.098;7.582;2022-10-16T20:23:08;15.00;99.90
23591;DHT22;11973;52.098;7.582;2022-10-16T20:25:39;15.00;99.90
23591;DHT22;11973;52.098;7.582;2022-10-16T20:28:06;15.00;99.90
23591;DHT22;11973;52.098;7.582;2022-10-16T20:30:37;15.00;99.90
23591;DHT22;11973;52.098;7.582;2022-10-16T20:33:04;15.00;99.90
23591;DHT22;11973;52.098;7.582;2022-10-16T20:35:44;15.00;99.90
23591;DHT22;11973;52.098;7.582;2022-10-16T20:38:11;15.00;99.90
23591;DHT22;11973;52.098;7.582;2022-10-16T20:40:39;15.00;99.90
23591;DHT22;11973;52.098;7.582;2022-10-16T20:43:05;15.00;99.90
23591;DHT22;11973;52.098;7.582;2022-10-16T20:45:31;15.00;99.90
23591;DHT22;11973;52.098;7.582;2022-10-16T20:47:58;14.90;99.90
23591;DHT22;11973;52.098;7.582;2022-10-16T20:50:27;14.90;99.90
23591;DHT22;11973;52.098;7.582;2022-10-16T20:52:54;14.90;99.90